Terminal Aerodrome Forecast
Issued by NWS

Home | Current Version | Previous Version | Text Only | Print | Product List | Glossary On
Versions: 1 2 3 4 5 6 7 8 9 10 11 12 13 14 15 16 17 18 19 20 21 22 23 24 25 26 27 28 29 30 31 32 33 34 35 36 37 38
000
FTAK31 PAFA 131303 AAA
TAFASC
TAF AMD
PASC 131303Z 1313/1412 32015KT P6SM VCSH SCT008 BKN035 OVC050
      TEMPO 1313/1316 4SM -RA OVC005
     FM131800 29015KT P6SM VCSH SCT008 BKN025 OVC035
     FM140000 26012KT P6SM VCSH SCT008 BKN035 OVC050=

USA.gov is the U.S. government's official web portal to all federal, state and local government web resources and services.